sensor_id;sensor_type;location;lat;lon;timestamp;P1;durP1;ratioP1;P2;durP2;ratioP2
7657;SDS011;8462;53.156;8.220;2024-02-04T00:01:26;8.40;;;3.27;;
7657;SDS011;8462;53.156;8.220;2024-02-04T00:03:56;10.27;;;4.30;;
7657;SDS011;8462;53.156;8.220;2024-02-04T00:06:25;11.07;;;3.53;;
7657;SDS011;8462;53.156;8.220;2024-02-04T00:08:52;14.47;;;4.53;;
7657;SDS011;8462;53.156;8.220;2024-02-04T00:11:20;12.57;;;3.80;;
7657;SDS011;8462;53.156;8.220;2024-02-04T00:13:50;10.80;;;4.40;;
7657;SDS011;8462;53.156;8.220;2024-02-04T00:16:18;11.63;;;4.53;;
7657;SDS011;8462;53.156;8.220;2024-02-04T00:18:46;10.03;;;4.30;;
7657;SDS011;8462;53.156;8.220;2024-02-04T00:21:16;9.03;;;4.27;;
7657;SDS011;8462;53.156;8.220;2024-02-04T00:23:44;11.23;;;4.30;;
7657;SDS011;8462;53.156;8.220;2024-02-04T00:26:12;8.83;;;3.60;;
7657;SDS011;8462;53.156;8.220;2024-02-04T00:28:39;12.00;;;4.30;;
7657;SDS011;8462;53.156;8.220;2024-02-04T00:31:11;9.50;;;5.27;;
7657;SDS011;8462;53.156;8.220;2024-02-04T00:33:40;19.70;;;6.50;;
7657;SDS011;8462;53.156;8.220;2024-02-04T00:36:08;13.17;;;5.00;;
7657;SDS011;8462;53.156;8.220;2024-02-04T00:38:36;11.30;;;5.10;;
7657;SDS011;8462;53.156;8.220;2024-02-04T00:41:06;13.97;;;5.23;;
7657;SDS011;8462;53.156;8.220;2024-02-04T00:43:33;9.87;;;4.60;;
7657;SDS011;8462;53.156;8.220;2024-02-04T00:46:01;12.00;;;4.60;;
7657;SDS011;8462;53.156;8.220;2024-02-04T00:48:30;11.23;;;5.00;;
7657;SDS011;8462;53.156;8.220;2024-02-04T00:50:57;12.30;;;4.93;;
7657;SDS011;8462;53.156;8.220;2024-02-04T00:53:26;11.70;;;4.73;;
7657;SDS011;8462;53.156;8.220;2024-02-04T00:56:00;9.33;;;4.60;;
7657;SDS011;8462;53.156;8.220;2024-02-04T00:58:31;10.13;;;5.07;;
7657;SDS011;8462;53.156;8.220;2024-02-04T01:00:58;9.03;;;4.97;;
7657;SDS011;8462;53.156;8.220;2024-02-04T01:03:25;11.47;;;5.20;;
7657;SDS011;8462;53.156;8.220;2024-02-04T01:05:53;12.07;;;5.53;;
7657;SDS011;8462;53.156;8.220;2024-02-04T01:08:25;15.87;;;5.70;;
7657;SDS011;8462;53.156;8.220;2024-02-04T01:10:53;10.40;;;5.53;;
7657;SDS011;8462;53.156;8.220;2024-02-04T01:13:20;14.30;;;6.00;;
7657;SDS011;8462;53.156;8.220;2024-02-04T01:15:49;11.30;;;6.27;;
7657;SDS011;8462;53.156;8.220;2024-02-04T01:18:21;13.13;;;5.90;;
7657;SDS011;8462;53.156;8.220;2024-02-04T01:20:49;10.07;;;6.07;;
7657;SDS011;8462;53.156;8.220;2024-02-04T01:23:17;11.60;;;5.70;;
7657;SDS011;8462;53.156;8.220;2024-02-04T01:25:45;13.10;;;6.13;;
7657;SDS011;8462;53.156;8.220;2024-02-04T01:28:12;10.10;;;5.97;;
7657;SDS011;8462;53.156;8.220;2024-02-04T01:30:39;12.47;;;6.10;;
7657;SDS011;8462;53.156;8.220;2024-02-04T01:33:11;18.67;;;6.57;;
7657;SDS011;8462;53.156;8.220;2024-02-04T01:35:39;16.67;;;6.47;;
7657;SDS011;8462;53.156;8.220;2024-02-04T01:38:07;15.97;;;6.43;;
7657;SDS011;8462;53.156;8.220;2024-02-04T01:40:35;14.47;;;5.80;;
7657;SDS011;8462;53.156;8.220;2024-02-04T01:43:03;12.43;;;6.23;;
7657;SDS011;8462;53.156;8.220;2024-02-04T01:45:31;12.70;;;5.90;;
7657;SDS011;8462;53.156;8.220;2024-02-04T01:47:59;20.10;;;6.90;;
7657;SDS011;8462;53.156;8.220;2024-02-04T01:50:28;13.47;;;6.03;;
7657;SDS011;8462;53.156;8.220;2024-02-04T01:52:56;11.53;;;5.93;;
7657;SDS011;8462;53.156;8.220;2024-02-04T01:55:24;11.40;;;5.47;;
7657;SDS011;8462;53.156;8.220;2024-02-04T01:57:53;13.80;;;6.47;;
7657;SDS011;8462;53.156;8.220;2024-02-04T02:00:22;13.00;;;5.40;;
7657;SDS011;8462;53.156;8.220;2024-02-04T02:02:49;13.53;;;5.67;;
7657;SDS011;8462;53.156;8.220;2024-02-04T02:05:19;10.00;;;5.30;;
7657;SDS011;8462;53.156;8.220;2024-02-04T02:07:48;13.57;;;4.83;;
7657;SDS011;8462;53.156;8.220;2024-02-04T02:10:17;10.23;;;5.10;;
7657;SDS011;8462;53.156;8.220;2024-02-04T02:12:47;9.87;;;4.80;;
7657;SDS011;8462;53.156;8.220;2024-02-04T02:15:21;13.57;;;5.47;;
7657;SDS011;8462;53.156;8.220;2024-02-04T02:17:51;13.57;;;5.03;;
7657;SDS011;8462;53.156;8.220;2024-02-04T02:20:24;14.27;;;5.77;;
7657;SDS011;8462;53.156;8.220;2024-02-04T02:23:02;10.57;;;5.43;;
7657;SDS011;8462;53.156;8.220;2024-02-04T02:25:39;9.43;;;5.10;;
7657;SDS011;8462;53.156;8.220;2024-02-04T02:28:08;20.10;;;5.67;;
7657;SDS011;8462;53.156;8.220;2024-02-04T02:30:37;11.47;;;4.70;;
7657;SDS011;8462;53.156;8.220;2024-02-04T02:33:06;11.47;;;4.20;;
7657;SDS011;8462;53.156;8.220;2024-02-04T02:35:34;9.07;;;3.90;;
7657;SDS011;8462;53.156;8.220;2024-02-04T02:38:03;8.80;;;4.20;;
7657;SDS011;8462;53.156;8.220;2024-02-04T02:40:41;11.63;;;4.23;;
7657;SDS011;8462;53.156;8.220;2024-02-04T02:43:13;7.27;;;3.80;;
7657;SDS011;8462;53.156;8.220;2024-02-04T02:45:41;10.90;;;3.77;;
7657;SDS011;8462;53.156;8.220;2024-02-04T02:48:10;14.67;;;4.43;;
7657;SDS011;8462;53.156;8.220;2024-02-04T02:50:38;6.33;;;3.37;;
7657;SDS011;8462;53.156;8.220;2024-02-04T02:53:06;11.60;;;4.60;;
7657;SDS011;8462;53.156;8.220;2024-02-04T02:55:33;9.93;;;3.70;;
7657;SDS011;8462;53.156;8.220;2024-02-04T02:58:05;9.40;;;3.93;;
7657;SDS011;8462;53.156;8.220;2024-02-04T03:00:33;11.23;;;3.90;;
7657;SDS011;8462;53.156;8.220;2024-02-04T03:03:00;6.67;;;2.90;;
7657;SDS011;8462;53.156;8.220;2024-02-04T03:05:28;7.97;;;3.30;;
7657;SDS011;8462;53.156;8.220;2024-02-04T03:07:59;7.53;;;2.90;;
7657;SDS011;8462;53.156;8.220;2024-02-04T03:10:27;9.40;;;3.47;;
7657;SDS011;8462;53.156;8.220;2024-02-04T03:12:54;8.33;;;3.10;;
7657;SDS011;8462;53.156;8.220;2024-02-04T03:15:23;10.27;;;3.10;;
7657;SDS011;8462;53.156;8.220;2024-02-04T03:17:52;10.40;;;3.10;;
7657;SDS011;8462;53.156;8.220;2024-02-04T03:20:19;12.63;;;3.27;;
7657;SDS011;8462;53.156;8.220;2024-02-04T03:22:47;11.77;;;3.73;;
7657;SDS011;8462;53.156;8.220;2024-02-04T03:25:15;11.17;;;2.83;;
7657;SDS011;8462;53.156;8.220;2024-02-04T03:27:42;9.07;;;2.60;;
7657;SDS011;8462;53.156;8.220;2024-02-04T03:30:10;15.23;;;3.40;;
7657;SDS011;8462;53.156;8.220;2024-02-04T03:32:42;8.53;;;2.77;;
7657;SDS011;8462;53.156;8.220;2024-02-04T03:35:11;8.40;;;2.93;;
7657;SDS011;8462;53.156;8.220;2024-02-04T03:37:44;9.03;;;2.47;;
7657;SDS011;8462;53.156;8.220;2024-02-04T03:40:12;12.60;;;3.03;;
7657;SDS011;8462;53.156;8.220;2024-02-04T03:42:40;15.30;;;3.20;;
7657;SDS011;8462;53.156;8.220;2024-02-04T03:45:08;10.27;;;3.40;;
7657;SDS011;8462;53.156;8.220;2024-02-04T03:47:35;7.93;;;2.90;;
7657;SDS011;8462;53.156;8.220;2024-02-04T03:50:04;8.37;;;2.20;;
7657;SDS011;8462;53.156;8.220;2024-02-04T03:52:33;11.10;;;2.87;;
7657;SDS011;8462;53.156;8.220;2024-02-04T03:55:01;6.73;;;2.50;;
7657;SDS011;8462;53.156;8.220;2024-02-04T03:57:32;7.97;;;2.30;;
7657;SDS011;8462;53.156;8.220;2024-02-04T03:59:59;9.97;;;2.70;;
7657;SDS011;8462;53.156;8.220;2024-02-04T04:02:28;9.27;;;2.70;;
7657;SDS011;8462;53.156;8.220;2024-02-04T04:04:56;11.20;;;3.13;;
7657;SDS011;8462;53.156;8.220;2024-02-04T04:07:28;6.90;;;3.37;;
7657;SDS011;8462;53.156;8.220;2024-02-04T04:09:58;7.27;;;2.53;;
7657;SDS011;8462;53.156;8.220;2024-02-04T04:12:26;10.13;;;3.60;;
7657;SDS011;8462;53.156;8.220;2024-02-04T04:14:54;10.33;;;3.03;;
7657;SDS011;8462;53.156;8.220;2024-02-04T04:17:21;12.13;;;2.67;;
7657;SDS011;8462;53.156;8.220;2024-02-04T04:19:48;7.57;;;2.33;;
7657;SDS011;8462;53.156;8.220;2024-02-04T04:22:17;9.10;;;2.77;;
7657;SDS011;8462;53.156;8.220;2024-02-04T04:24:46;8.07;;;2.67;;
7657;SDS011;8462;53.156;8.220;2024-02-04T04:27:16;9.73;;;2.17;;
7657;SDS011;8462;53.156;8.220;2024-02-04T04:29:45;10.67;;;2.40;;
7657;SDS011;8462;53.156;8.220;2024-02-04T04:32:12;8.77;;;2.67;;
7657;SDS011;8462;53.156;8.220;2024-02-04T04:34:40;8.27;;;2.77;;
7657;SDS011;8462;53.156;8.220;2024-02-04T04:37:09;9.37;;;2.83;;
7657;SDS011;8462;53.156;8.220;2024-02-04T04:39:38;7.23;;;2.80;;
7657;SDS011;8462;53.156;8.220;2024-02-04T04:42:08;12.20;;;2.60;;
7657;SDS011;8462;53.156;8.220;2024-02-04T04:44:35;10.20;;;2.53;;
7657;SDS011;8462;53.156;8.220;2024-02-04T04:47:04;8.90;;;2.53;;
7657;SDS011;8462;53.156;8.220;2024-02-04T04:49:32;9.33;;;2.17;;
7657;SDS011;8462;53.156;8.220;2024-02-04T04:52:01;9.37;;;2.87;;
7657;SDS011;8462;53.156;8.220;2024-02-04T04:54:29;11.77;;;2.30;;
7657;SDS011;8462;53.156;8.220;2024-02-04T04:56:58;10.13;;;2.17;;
7657;SDS011;8462;53.156;8.220;2024-02-04T04:59:28;7.67;;;2.43;;
7657;SDS011;8462;53.156;8.220;2024-02-04T05:01:55;11.90;;;2.83;;
7657;SDS011;8462;53.156;8.220;2024-02-04T05:04:22;7.70;;;2.00;;
7657;SDS011;8462;53.156;8.220;2024-02-04T05:06:50;10.20;;;2.20;;
7657;SDS011;8462;53.156;8.220;2024-02-04T05:09:18;7.87;;;2.50;;
7657;SDS011;8462;53.156;8.220;2024-02-04T05:11:49;8.50;;;2.67;;
7657;SDS011;8462;53.156;8.220;2024-02-04T05:14:16;6.53;;;2.60;;
7657;SDS011;8462;53.156;8.220;2024-02-04T05:16:45;7.23;;;2.00;;
7657;SDS011;8462;53.156;8.220;2024-02-04T05:19:12;5.80;;;2.13;;
7657;SDS011;8462;53.156;8.220;2024-02-04T05:21:41;13.27;;;2.77;;
7657;SDS011;8462;53.156;8.220;2024-02-04T05:24:10;10.40;;;2.70;;
7657;SDS011;8462;53.156;8.220;2024-02-04T05:26:37;14.00;;;3.60;;
7657;SDS011;8462;53.156;8.220;2024-02-04T05:29:05;8.23;;;2.40;;
7657;SDS011;8462;53.156;8.220;2024-02-04T05:31:39;6.80;;;2.30;;
7657;SDS011;8462;53.156;8.220;2024-02-04T05:34:08;9.80;;;2.43;;
7657;SDS011;8462;53.156;8.220;2024-02-04T05:36:36;6.83;;;2.63;;
7657;SDS011;8462;53.156;8.220;2024-02-04T05:39:10;8.10;;;2.47;;
7657;SDS011;8462;53.156;8.220;2024-02-04T05:41:38;8.83;;;2.60;;
7657;SDS011;8462;53.156;8.220;2024-02-04T05:44:07;6.90;;;2.10;;
7657;SDS011;8462;53.156;8.220;2024-02-04T05:46:36;10.87;;;3.10;;
7657;SDS011;8462;53.156;8.220;2024-02-04T05:49:03;6.63;;;2.73;;
7657;SDS011;8462;53.156;8.220;2024-02-04T05:51:39;8.83;;;2.27;;
7657;SDS011;8462;53.156;8.220;2024-02-04T05:54:07;6.37;;;2.20;;
7657;SDS011;8462;53.156;8.220;2024-02-04T05:56:35;9.47;;;2.57;;
7657;SDS011;8462;53.156;8.220;2024-02-04T05:59:03;9.30;;;2.73;;
7657;SDS011;8462;53.156;8.220;2024-02-04T06:01:31;9.57;;;2.50;;
7657;SDS011;8462;53.156;8.220;2024-02-04T06:04:00;7.57;;;2.00;;
7657;SDS011;8462;53.156;8.220;2024-02-04T06:06:29;8.77;;;2.33;;
7657;SDS011;8462;53.156;8.220;2024-02-04T06:08:59;7.77;;;2.40;;
7657;SDS011;8462;53.156;8.220;2024-02-04T06:11:27;10.30;;;3.10;;
7657;SDS011;8462;53.156;8.220;2024-02-04T06:13:56;10.17;;;3.00;;
7657;SDS011;8462;53.156;8.220;2024-02-04T06:16:24;7.90;;;2.53;;
7657;SDS011;8462;53.156;8.220;2024-02-04T06:18:52;7.47;;;3.00;;
7657;SDS011;8462;53.156;8.220;2024-02-04T06:21:21;9.60;;;3.00;;
7657;SDS011;8462;53.156;8.220;2024-02-04T06:23:48;8.27;;;3.17;;
7657;SDS011;8462;53.156;8.220;2024-02-04T06:26:18;9.43;;;2.90;;
7657;SDS011;8462;53.156;8.220;2024-02-04T06:28:45;12.37;;;3.37;;
7657;SDS011;8462;53.156;8.220;2024-02-04T06:31:15;10.10;;;3.33;;
7657;SDS011;8462;53.156;8.220;2024-02-04T06:33:42;11.07;;;4.10;;
7657;SDS011;8462;53.156;8.220;2024-02-04T06:36:09;11.50;;;3.20;;
7657;SDS011;8462;53.156;8.220;2024-02-04T06:38:36;12.33;;;3.83;;
7657;SDS011;8462;53.156;8.220;2024-02-04T06:41:04;10.80;;;3.40;;
7657;SDS011;8462;53.156;8.220;2024-02-04T06:43:36;11.10;;;3.03;;
7657;SDS011;8462;53.156;8.220;2024-02-04T06:46:04;11.17;;;3.43;;
7657;SDS011;8462;53.156;8.220;2024-02-04T06:48:32;11.07;;;3.63;;
7657;SDS011;8462;53.156;8.220;2024-02-04T06:51:00;9.33;;;3.67;;
7657;SDS011;8462;53.156;8.220;2024-02-04T06:53:28;9.07;;;3.43;;
7657;SDS011;8462;53.156;8.220;2024-02-04T06:55:55;12.90;;;3.50;;
7657;SDS011;8462;53.156;8.220;2024-02-04T06:58:24;9.50;;;3.53;;
7657;SDS011;8462;53.156;8.220;2024-02-04T07:00:55;11.97;;;4.13;;
7657;SDS011;8462;53.156;8.220;2024-02-04T07:03:23;11.03;;;3.80;;
7657;SDS011;8462;53.156;8.220;2024-02-04T07:05:55;9.37;;;3.30;;
7657;SDS011;8462;53.156;8.220;2024-02-04T07:08:23;10.43;;;3.20;;
7657;SDS011;8462;53.156;8.220;2024-02-04T07:10:51;10.77;;;3.43;;
7657;SDS011;8462;53.156;8.220;2024-02-04T07:13:20;10.03;;;3.37;;
7657;SDS011;8462;53.156;8.220;2024-02-04T07:15:47;8.50;;;2.70;;
7657;SDS011;8462;53.156;8.220;2024-02-04T07:18:15;12.97;;;3.43;;
7657;SDS011;8462;53.156;8.220;2024-02-04T07:20:48;9.93;;;3.57;;
7657;SDS011;8462;53.156;8.220;2024-02-04T07:23:14;9.37;;;3.73;;
7657;SDS011;8462;53.156;8.220;2024-02-04T07:25:42;11.07;;;3.07;;
7657;SDS011;8462;53.156;8.220;2024-02-04T07:28:10;6.80;;;3.17;;
7657;SDS011;8462;53.156;8.220;2024-02-04T07:30:38;8.73;;;2.90;;
7657;SDS011;8462;53.156;8.220;2024-02-04T07:33:05;10.50;;;3.00;;
7657;SDS011;8462;53.156;8.220;2024-02-04T07:35:36;9.73;;;3.00;;
7657;SDS011;8462;53.156;8.220;2024-02-04T07:38:08;12.73;;;3.17;;
7657;SDS011;8462;53.156;8.220;2024-02-04T07:40:37;9.90;;;2.90;;
7657;SDS011;8462;53.156;8.220;2024-02-04T07:43:04;12.70;;;3.87;;
7657;SDS011;8462;53.156;8.220;2024-02-04T07:45:35;10.40;;;3.47;;
7657;SDS011;8462;53.156;8.220;2024-02-04T07:48:03;9.30;;;3.13;;
7657;SDS011;8462;53.156;8.220;2024-02-04T07:50:32;9.40;;;3.40;;
7657;SDS011;8462;53.156;8.220;2024-02-04T07:53:01;6.60;;;2.43;;
7657;SDS011;8462;53.156;8.220;2024-02-04T07:55:31;15.23;;;3.53;;
7657;SDS011;8462;53.156;8.220;2024-02-04T07:57:59;14.37;;;3.13;;
7657;SDS011;8462;53.156;8.220;2024-02-04T08:00:28;10.70;;;3.57;;
7657;SDS011;8462;53.156;8.220;2024-02-04T08:02:55;7.10;;;2.03;;
7657;SDS011;8462;53.156;8.220;2024-02-04T08:05:23;9.93;;;2.87;;
7657;SDS011;8462;53.156;8.220;2024-02-04T08:07:51;6.60;;;2.23;;
7657;SDS011;8462;53.156;8.220;2024-02-04T08:10:20;12.03;;;3.20;;
7657;SDS011;8462;53.156;8.220;2024-02-04T08:12:48;8.23;;;2.60;;
7657;SDS011;8462;53.156;8.220;2024-02-04T08:15:18;11.37;;;3.07;;
7657;SDS011;8462;53.156;8.220;2024-02-04T08:17:46;9.83;;;2.53;;
7657;SDS011;8462;53.156;8.220;2024-02-04T08:20:15;8.67;;;2.63;;
7657;SDS011;8462;53.156;8.220;2024-02-04T08:22:44;7.10;;;2.93;;
7657;SDS011;8462;53.156;8.220;2024-02-04T08:25:12;7.93;;;2.60;;
7657;SDS011;8462;53.156;8.220;2024-02-04T08:27:41;9.83;;;2.70;;
7657;SDS011;8462;53.156;8.220;2024-02-04T08:30:09;9.47;;;3.53;;
7657;SDS011;8462;53.156;8.220;2024-02-04T08:32:37;7.70;;;3.07;;
7657;SDS011;8462;53.156;8.220;2024-02-04T08:35:05;9.47;;;3.03;;
7657;SDS011;8462;53.156;8.220;2024-02-04T08:37:33;10.80;;;2.60;;
7657;SDS011;8462;53.156;8.220;2024-02-04T08:40:03;6.73;;;2.70;;
7657;SDS011;8462;53.156;8.220;2024-02-04T08:42:31;10.70;;;2.30;;
7657;SDS011;8462;53.156;8.220;2024-02-04T08:45:02;12.40;;;3.20;;
7657;SDS011;8462;53.156;8.220;2024-02-04T08:47:29;10.97;;;3.10;;
7657;SDS011;8462;53.156;8.220;2024-02-04T08:49:59;9.20;;;2.60;;
7657;SDS011;8462;53.156;8.220;2024-02-04T08:52:27;7.70;;;2.70;;
7657;SDS011;8462;53.156;8.220;2024-02-04T08:54:55;9.40;;;2.30;;
7657;SDS011;8462;53.156;8.220;2024-02-04T08:57:23;11.77;;;3.10;;
7657;SDS011;8462;53.156;8.220;2024-02-04T08:59:52;7.20;;;2.73;;
7657;SDS011;8462;53.156;8.220;2024-02-04T09:02:23;10.17;;;3.37;;
7657;SDS011;8462;53.156;8.220;2024-02-04T09:04:50;10.73;;;3.10;;
7657;SDS011;8462;53.156;8.220;2024-02-04T09:07:18;12.37;;;3.03;;
7657;SDS011;8462;53.156;8.220;2024-02-04T09:09:49;6.77;;;2.80;;
7657;SDS011;8462;53.156;8.220;2024-02-04T09:12:16;12.40;;;3.10;;
7657;SDS011;8462;53.156;8.220;2024-02-04T09:14:44;14.40;;;3.30;;
7657;SDS011;8462;53.156;8.220;2024-02-04T09:17:12;10.43;;;2.70;;
7657;SDS011;8462;53.156;8.220;2024-02-04T09:19:42;8.73;;;3.60;;
7657;SDS011;8462;53.156;8.220;2024-02-04T09:22:10;9.73;;;2.90;;
7657;SDS011;8462;53.156;8.220;2024-02-04T09:24:37;11.97;;;3.33;;
7657;SDS011;8462;53.156;8.220;2024-02-04T09:27:05;7.77;;;2.63;;
7657;SDS011;8462;53.156;8.220;2024-02-04T09:29:38;10.83;;;3.10;;
7657;SDS011;8462;53.156;8.220;2024-02-04T09:32:10;6.67;;;2.70;;
7657;SDS011;8462;53.156;8.220;2024-02-04T09:34:37;11.27;;;3.20;;
7657;SDS011;8462;53.156;8.220;2024-02-04T09:37:07;17.73;;;3.37;;
7657;SDS011;8462;53.156;8.220;2024-02-04T09:39:43;13.43;;;3.10;;
7657;SDS011;8462;53.156;8.220;2024-02-04T09:42:11;12.43;;;2.73;;
7657;SDS011;8462;53.156;8.220;2024-02-04T09:44:45;13.60;;;3.70;;
7657;SDS011;8462;53.156;8.220;2024-02-04T09:47:14;6.57;;;2.87;;
7657;SDS011;8462;53.156;8.220;2024-02-04T09:49:44;8.77;;;2.67;;
7657;SDS011;8462;53.156;8.220;2024-02-04T09:52:16;10.47;;;2.87;;
7657;SDS011;8462;53.156;8.220;2024-02-04T09:54:48;12.10;;;3.67;;
7657;SDS011;8462;53.156;8.220;2024-02-04T09:57:22;11.03;;;2.97;;
7657;SDS011;8462;53.156;8.220;2024-02-04T09:59:55;9.60;;;2.37;;
7657;SDS011;8462;53.156;8.220;2024-02-04T10:02:23;6.87;;;2.57;;
7657;SDS011;8462;53.156;8.220;2024-02-04T10:04:51;14.23;;;3.10;;
7657;SDS011;8462;53.156;8.220;2024-02-04T10:07:22;10.97;;;3.10;;
7657;SDS011;8462;53.156;8.220;2024-02-04T10:09:50;12.13;;;2.93;;
7657;SDS011;8462;53.156;8.220;2024-02-04T10:12:18;9.50;;;2.87;;
7657;SDS011;8462;53.156;8.220;2024-02-04T10:14:46;8.97;;;3.27;;
7657;SDS011;8462;53.156;8.220;2024-02-04T10:17:18;10.97;;;3.40;;
7657;SDS011;8462;53.156;8.220;2024-02-04T10:19:49;9.27;;;3.03;;
7657;SDS011;8462;53.156;8.220;2024-02-04T10:22:24;10.13;;;3.10;;
7657;SDS011;8462;53.156;8.220;2024-02-04T10:25:04;8.00;;;3.27;;
7657;SDS011;8462;53.156;8.220;2024-02-04T10:27:32;8.70;;;2.87;;
7657;SDS011;8462;53.156;8.220;2024-02-04T10:29:59;9.50;;;3.00;;
7657;SDS011;8462;53.156;8.220;2024-02-04T10:32:28;7.40;;;2.93;;
7657;SDS011;8462;53.156;8.220;2024-02-04T10:35:03;6.40;;;2.73;;
7657;SDS011;8462;53.156;8.220;2024-02-04T10:37:32;9.00;;;2.57;;
7657;SDS011;8462;53.156;8.220;2024-02-04T10:40:01;6.87;;;2.27;;
7657;SDS011;8462;53.156;8.220;2024-02-04T10:42:30;7.67;;;2.33;;
7657;SDS011;8462;53.156;8.220;2024-02-04T10:45:04;8.77;;;2.90;;
7657;SDS011;8462;53.156;8.220;2024-02-04T10:47:37;6.00;;;2.40;;
7657;SDS011;8462;53.156;8.220;2024-02-04T10:50:06;10.53;;;2.73;;
7657;SDS011;8462;53.156;8.220;2024-02-04T10:52:37;7.33;;;2.27;;
7657;SDS011;8462;53.156;8.220;2024-02-04T10:55:07;13.60;;;3.47;;
7657;SDS011;8462;53.156;8.220;2024-02-04T10:57:38;12.20;;;3.37;;
7657;SDS011;8462;53.156;8.220;2024-02-04T11:00:07;9.33;;;3.83;;
7657;SDS011;8462;53.156;8.220;2024-02-04T11:02:37;9.23;;;2.77;;
7657;SDS011;8462;53.156;8.220;2024-02-04T11:05:07;5.50;;;2.13;;
7657;SDS011;8462;53.156;8.220;2024-02-04T11:07:38;6.23;;;2.73;;
7657;SDS011;8462;53.156;8.220;2024-02-04T11:10:06;9.27;;;3.00;;
7657;SDS011;8462;53.156;8.220;2024-02-04T11:12:34;9.23;;;2.63;;
7657;SDS011;8462;53.156;8.220;2024-02-04T11:15:05;8.27;;;2.97;;
7657;SDS011;8462;53.156;8.220;2024-02-04T11:17:49;10.97;;;3.50;;
7657;SDS011;8462;53.156;8.220;2024-02-04T11:20:33;7.23;;;2.60;;
7657;SDS011;8462;53.156;8.220;2024-02-04T11:23:35;7.17;;;2.83;;
7657;SDS011;8462;53.156;8.220;2024-02-04T11:26:09;7.80;;;2.87;;
7657;SDS011;8462;53.156;8.220;2024-02-04T11:28:41;9.73;;;2.80;;
7657;SDS011;8462;53.156;8.220;2024-02-04T11:31:13;8.67;;;2.33;;
7657;SDS011;8462;53.156;8.220;2024-02-04T11:33:45;7.07;;;2.50;;
7657;SDS011;8462;53.156;8.220;2024-02-04T11:36:13;13.27;;;3.30;;
7657;SDS011;8462;53.156;8.220;2024-02-04T11:38:48;7.33;;;2.57;;
7657;SDS011;8462;53.156;8.220;2024-02-04T11:41:21;8.53;;;2.50;;
7657;SDS011;8462;53.156;8.220;2024-02-04T11:43:52;9.47;;;2.40;;
7657;SDS011;8462;53.156;8.220;2024-02-04T11:46:22;8.77;;;4.57;;
7657;SDS011;8462;53.156;8.220;2024-02-04T11:48:54;8.70;;;2.77;;
7657;SDS011;8462;53.156;8.220;2024-02-04T11:51:22;5.63;;;2.63;;
7657;SDS011;8462;53.156;8.220;2024-02-04T11:53:53;5.30;;;2.70;;
7657;SDS011;8462;53.156;8.220;2024-02-04T11:56:23;7.50;;;2.70;;
7657;SDS011;8462;53.156;8.220;2024-02-04T11:58:51;6.87;;;2.40;;
7657;SDS011;8462;53.156;8.220;2024-02-04T12:01:25;10.53;;;2.53;;
7657;SDS011;8462;53.156;8.220;2024-02-04T12:03:53;6.93;;;2.70;;
7657;SDS011;8462;53.156;8.220;2024-02-04T12:06:22;9.67;;;2.17;;
7657;SDS011;8462;53.156;8.220;2024-02-04T12:08:51;5.60;;;2.30;;
7657;SDS011;8462;53.156;8.220;2024-02-04T12:11:20;6.97;;;2.43;;
7657;SDS011;8462;53.156;8.220;2024-02-04T12:13:49;8.07;;;2.67;;
7657;SDS011;8462;53.156;8.220;2024-02-04T12:16:21;9.00;;;2.80;;
7657;SDS011;8462;53.156;8.220;2024-02-04T12:18:49;5.10;;;2.10;;
7657;SDS011;8462;53.156;8.220;2024-02-04T12:21:17;11.50;;;2.70;;
7657;SDS011;8462;53.156;8.220;2024-02-04T12:23:45;7.17;;;2.63;;
7657;SDS011;8462;53.156;8.220;2024-02-04T12:26:15;6.87;;;2.40;;
7657;SDS011;8462;53.156;8.220;2024-02-04T12:28:44;8.73;;;2.50;;
7657;SDS011;8462;53.156;8.220;2024-02-04T12:31:18;5.93;;;2.27;;
7657;SDS011;8462;53.156;8.220;2024-02-04T12:33:52;4.60;;;2.60;;
7657;SDS011;8462;53.156;8.220;2024-02-04T12:36:23;7.80;;;2.37;;
7657;SDS011;8462;53.156;8.220;2024-02-04T12:38:52;6.90;;;2.43;;
7657;SDS011;8462;53.156;8.220;2024-02-04T12:41:23;12.97;;;7.13;;
7657;SDS011;8462;53.156;8.220;2024-02-04T12:43:52;7.23;;;2.10;;
7657;SDS011;8462;53.156;8.220;2024-02-04T12:46:21;8.27;;;2.83;;
7657;SDS011;8462;53.156;8.220;2024-02-04T12:48:50;5.90;;;2.13;;
7657;SDS011;8462;53.156;8.220;2024-02-04T12:51:23;8.50;;;2.07;;
7657;SDS011;8462;53.156;8.220;2024-02-04T12:54:01;5.43;;;2.40;;
7657;SDS011;8462;53.156;8.220;2024-02-04T12:56:42;8.10;;;2.40;;
7657;SDS011;8462;53.156;8.220;2024-02-04T12:59:11;7.83;;;1.80;;
7657;SDS011;8462;53.156;8.220;2024-02-04T13:01:52;4.10;;;1.90;;
7657;SDS011;8462;53.156;8.220;2024-02-04T13:04:22;7.13;;;2.13;;
7657;SDS011;8462;53.156;8.220;2024-02-04T13:06:49;6.37;;;2.00;;
7657;SDS011;8462;53.156;8.220;2024-02-04T13:09:19;9.13;;;2.60;;
7657;SDS011;8462;53.156;8.220;2024-02-04T13:11:50;8.50;;;2.50;;
7657;SDS011;8462;53.156;8.220;2024-02-04T13:14:20;8.93;;;2.50;;
7657;SDS011;8462;53.156;8.220;2024-02-04T13:16:49;6.63;;;2.57;;
7657;SDS011;8462;53.156;8.220;2024-02-04T13:19:17;7.77;;;2.30;;
7657;SDS011;8462;53.156;8.220;2024-02-04T13:21:45;4.83;;;1.70;;
7657;SDS011;8462;53.156;8.220;2024-02-04T13:24:15;5.40;;;2.20;;
7657;SDS011;8462;53.156;8.220;2024-02-04T13:26:42;6.40;;;2.40;;
7657;SDS011;8462;53.156;8.220;2024-02-04T13:29:11;4.17;;;1.80;;
7657;SDS011;8462;53.156;8.220;2024-02-04T13:31:38;9.47;;;2.10;;
7657;SDS011;8462;53.156;8.220;2024-02-04T13:34:07;9.20;;;3.13;;
7657;SDS011;8462;53.156;8.220;2024-02-04T13:36:35;6.83;;;2.27;;
7657;SDS011;8462;53.156;8.220;2024-02-04T13:39:04;6.67;;;2.23;;
7657;SDS011;8462;53.156;8.220;2024-02-04T13:41:32;10.00;;;3.03;;
7657;SDS011;8462;53.156;8.220;2024-02-04T13:44:01;5.20;;;2.03;;
7657;SDS011;8462;53.156;8.220;2024-02-04T13:46:30;7.83;;;2.60;;
7657;SDS011;8462;53.156;8.220;2024-02-04T13:49:00;10.60;;;2.73;;
7657;SDS011;8462;53.156;8.220;2024-02-04T13:51:29;6.97;;;2.50;;
7657;SDS011;8462;53.156;8.220;2024-02-04T13:53:57;5.13;;;1.80;;
7657;SDS011;8462;53.156;8.220;2024-02-04T13:56:25;9.80;;;2.97;;
7657;SDS011;8462;53.156;8.220;2024-02-04T13:58:53;10.60;;;3.03;;
7657;SDS011;8462;53.156;8.220;2024-02-04T14:01:21;6.27;;;2.20;;
7657;SDS011;8462;53.156;8.220;2024-02-04T14:03:52;7.03;;;2.33;;
7657;SDS011;8462;53.156;8.220;2024-02-04T14:06:20;5.43;;;2.27;;
7657;SDS011;8462;53.156;8.220;2024-02-04T14:08:48;6.70;;;2.10;;
7657;SDS011;8462;53.156;8.220;2024-02-04T14:11:17;6.37;;;2.23;;
7657;SDS011;8462;53.156;8.220;2024-02-04T14:13:46;7.27;;;2.20;;
7657;SDS011;8462;53.156;8.220;2024-02-04T14:16:14;8.33;;;2.53;;
7657;SDS011;8462;53.156;8.220;2024-02-04T14:18:42;5.20;;;2.27;;
7657;SDS011;8462;53.156;8.220;2024-02-04T14:21:15;4.80;;;2.20;;
7657;SDS011;8462;53.156;8.220;2024-02-04T14:23:43;6.43;;;2.50;;
7657;SDS011;8462;53.156;8.220;2024-02-04T14:26:15;6.87;;;2.93;;
7657;SDS011;8462;53.156;8.220;2024-02-04T14:28:44;8.17;;;2.33;;
7657;SDS011;8462;53.156;8.220;2024-02-04T14:31:13;7.83;;;2.70;;
7657;SDS011;8462;53.156;8.220;2024-02-04T14:33:40;5.53;;;2.03;;
7657;SDS011;8462;53.156;8.220;2024-02-04T14:36:08;6.60;;;3.37;;
7657;SDS011;8462;53.156;8.220;2024-02-04T14:38:37;8.30;;;2.50;;
7657;SDS011;8462;53.156;8.220;2024-02-04T14:41:06;10.30;;;3.13;;
7657;SDS011;8462;53.156;8.220;2024-02-04T14:43:34;6.83;;;2.30;;
7657;SDS011;8462;53.156;8.220;2024-02-04T14:46:02;7.33;;;2.13;;
7657;SDS011;8462;53.156;8.220;2024-02-04T14:48:30;7.23;;;1.90;;
7657;SDS011;8462;53.156;8.220;2024-02-04T14:50:59;5.87;;;2.53;;
7657;SDS011;8462;53.156;8.220;2024-02-04T14:53:28;5.87;;;2.60;;
7657;SDS011;8462;53.156;8.220;2024-02-04T14:55:57;6.33;;;2.30;;
7657;SDS011;8462;53.156;8.220;2024-02-04T14:58:25;6.20;;;1.93;;
7657;SDS011;8462;53.156;8.220;2024-02-04T15:00:54;7.67;;;2.67;;
7657;SDS011;8462;53.156;8.220;2024-02-04T15:03:23;8.00;;;2.63;;
7657;SDS011;8462;53.156;8.220;2024-02-04T15:05:51;6.23;;;2.10;;
7657;SDS011;8462;53.156;8.220;2024-02-04T15:08:20;6.73;;;2.57;;
7657;SDS011;8462;53.156;8.220;2024-02-04T15:10:49;5.37;;;2.00;;
7657;SDS011;8462;53.156;8.220;2024-02-04T15:13:19;5.43;;;1.83;;
7657;SDS011;8462;53.156;8.220;2024-02-04T15:15:47;5.83;;;1.90;;
7657;SDS011;8462;53.156;8.220;2024-02-04T15:18:16;9.50;;;2.63;;
7657;SDS011;8462;53.156;8.220;2024-02-04T15:20:44;3.97;;;1.87;;
7657;SDS011;8462;53.156;8.220;2024-02-04T15:23:12;4.73;;;2.10;;